sensor_id;sensor_type;location;lat;lon;timestamp;P1;durP1;ratioP1;P2;durP2;ratioP2
52386;SDS011;38317;53.084;6.960;2023-12-20T00:01:48;10.07;;;1.85;;
52386;SDS011;38317;53.084;6.960;2023-12-20T00:04:14;10.27;;;1.40;;
52386;SDS011;38317;53.084;6.960;2023-12-20T00:06:40;10.77;;;1.70;;
52386;SDS011;38317;53.084;6.960;2023-12-20T00:09:05;9.60;;;1.10;;
52386;SDS011;38317;53.084;6.960;2023-12-20T00:11:31;7.70;;;1.30;;
52386;SDS011;38317;53.084;6.960;2023-12-20T00:13:57;10.98;;;1.40;;
52386;SDS011;38317;53.084;6.960;2023-12-20T00:16:22;9.57;;;1.33;;
52386;SDS011;38317;53.084;6.960;2023-12-20T00:18:48;10.48;;;1.40;;
52386;SDS011;38317;53.084;6.960;2023-12-20T00:21:14;9.98;;;1.55;;
52386;SDS011;38317;53.084;6.960;2023-12-20T00:23:40;9.32;;;1.67;;
52386;SDS011;38317;53.084;6.960;2023-12-20T00:26:06;11.38;;;1.77;;
52386;SDS011;38317;53.084;6.960;2023-12-20T00:28:32;9.80;;;1.30;;
52386;SDS011;38317;53.084;6.960;2023-12-20T00:30:57;6.15;;;1.08;;
52386;SDS011;38317;53.084;6.960;2023-12-20T00:33:23;11.05;;;1.60;;
52386;SDS011;38317;53.084;6.960;2023-12-20T00:35:49;11.93;;;1.30;;
52386;SDS011;38317;53.084;6.960;2023-12-20T00:38:15;10.70;;;1.30;;
52386;SDS011;38317;53.084;6.960;2023-12-20T00:40:40;10.60;;;1.38;;
52386;SDS011;38317;53.084;6.960;2023-12-20T00:43:06;13.13;;;2.00;;
52386;SDS011;38317;53.084;6.960;2023-12-20T00:45:32;11.23;;;1.60;;
52386;SDS011;38317;53.084;6.960;2023-12-20T00:47:57;8.18;;;1.25;;
52386;SDS011;38317;53.084;6.960;2023-12-20T00:50:24;15.70;;;1.75;;
52386;SDS011;38317;53.084;6.960;2023-12-20T00:52:50;12.32;;;1.23;;
52386;SDS011;38317;53.084;6.960;2023-12-20T00:55:16;10.32;;;1.50;;
52386;SDS011;38317;53.084;6.960;2023-12-20T00:57:41;11.60;;;1.50;;
52386;SDS011;38317;53.084;6.960;2023-12-20T01:00:07;9.32;;;1.10;;
52386;SDS011;38317;53.084;6.960;2023-12-20T01:02:38;9.63;;;1.15;;
52386;SDS011;38317;53.084;6.960;2023-12-20T01:05:05;12.23;;;1.48;;
52386;SDS011;38317;53.084;6.960;2023-12-20T01:07:32;12.48;;;1.17;;
52386;SDS011;38317;53.084;6.960;2023-12-20T01:09:58;10.38;;;1.30;;
52386;SDS011;38317;53.084;6.960;2023-12-20T01:12:23;12.45;;;1.30;;
52386;SDS011;38317;53.084;6.960;2023-12-20T01:14:49;10.77;;;1.35;;
52386;SDS011;38317;53.084;6.960;2023-12-20T01:17:15;10.60;;;1.20;;
52386;SDS011;38317;53.084;6.960;2023-12-20T01:19:41;10.10;;;1.30;;
52386;SDS011;38317;53.084;6.960;2023-12-20T01:22:06;14.13;;;1.40;;
52386;SDS011;38317;53.084;6.960;2023-12-20T01:24:32;11.38;;;1.52;;
52386;SDS011;38317;53.084;6.960;2023-12-20T01:26:58;12.65;;;1.33;;
52386;SDS011;38317;53.084;6.960;2023-12-20T01:29:23;9.93;;;1.40;;
52386;SDS011;38317;53.084;6.960;2023-12-20T01:31:49;15.35;;;1.67;;
52386;SDS011;38317;53.084;6.960;2023-12-20T01:34:15;16.88;;;1.90;;
52386;SDS011;38317;53.084;6.960;2023-12-20T01:36:41;17.17;;;1.58;;
52386;SDS011;38317;53.084;6.960;2023-12-20T01:39:07;15.05;;;1.45;;
52386;SDS011;38317;53.084;6.960;2023-12-20T01:41:33;8.40;;;1.10;;
52386;SDS011;38317;53.084;6.960;2023-12-20T01:43:59;9.48;;;1.35;;
52386;SDS011;38317;53.084;6.960;2023-12-20T01:46:25;13.90;;;1.75;;
52386;SDS011;38317;53.084;6.960;2023-12-20T01:48:51;13.07;;;1.85;;
52386;SDS011;38317;53.084;6.960;2023-12-20T01:51:17;13.38;;;1.38;;
52386;SDS011;38317;53.084;6.960;2023-12-20T01:53:44;14.48;;;2.22;;
52386;SDS011;38317;53.084;6.960;2023-12-20T01:56:10;12.70;;;1.75;;
52386;SDS011;38317;53.084;6.960;2023-12-20T01:58:38;13.85;;;2.08;;
52386;SDS011;38317;53.084;6.960;2023-12-20T02:01:11;13.10;;;1.30;;
52386;SDS011;38317;53.084;6.960;2023-12-20T02:03:38;11.45;;;1.58;;
52386;SDS011;38317;53.084;6.960;2023-12-20T02:06:07;16.27;;;1.80;;
52386;SDS011;38317;53.084;6.960;2023-12-20T02:08:34;15.80;;;1.83;;
52386;SDS011;38317;53.084;6.960;2023-12-20T02:11:00;15.55;;;2.03;;
52386;SDS011;38317;53.084;6.960;2023-12-20T02:13:26;13.48;;;1.63;;
52386;SDS011;38317;53.084;6.960;2023-12-20T02:15:52;14.13;;;1.58;;
52386;SDS011;38317;53.084;6.960;2023-12-20T02:18:19;14.57;;;1.65;;
52386;SDS011;38317;53.084;6.960;2023-12-20T02:20:45;12.80;;;1.67;;
52386;SDS011;38317;53.084;6.960;2023-12-20T02:23:10;14.05;;;1.23;;
52386;SDS011;38317;53.084;6.960;2023-12-20T02:25:36;16.50;;;1.77;;
52386;SDS011;38317;53.084;6.960;2023-12-20T02:28:03;10.65;;;1.95;;
52386;SDS011;38317;53.084;6.960;2023-12-20T02:30:29;10.15;;;1.52;;
52386;SDS011;38317;53.084;6.960;2023-12-20T02:32:55;8.88;;;1.10;;
52386;SDS011;38317;53.084;6.960;2023-12-20T02:35:21;11.20;;;1.35;;
52386;SDS011;38317;53.084;6.960;2023-12-20T02:37:50;14.98;;;1.80;;
52386;SDS011;38317;53.084;6.960;2023-12-20T02:40:16;13.73;;;2.05;;
52386;SDS011;38317;53.084;6.960;2023-12-20T02:42:41;13.00;;;1.98;;
52386;SDS011;38317;53.084;6.960;2023-12-20T02:45:07;14.68;;;1.80;;
52386;SDS011;38317;53.084;6.960;2023-12-20T02:47:33;18.63;;;2.10;;
52386;SDS011;38317;53.084;6.960;2023-12-20T02:49:59;14.95;;;2.00;;
52386;SDS011;38317;53.084;6.960;2023-12-20T02:52:27;18.42;;;2.20;;
52386;SDS011;38317;53.084;6.960;2023-12-20T02:54:54;14.95;;;2.13;;
52386;SDS011;38317;53.084;6.960;2023-12-20T02:57:19;17.10;;;2.33;;
52386;SDS011;38317;53.084;6.960;2023-12-20T02:59:46;9.80;;;2.00;;
52386;SDS011;38317;53.084;6.960;2023-12-20T03:02:12;13.20;;;1.80;;
52386;SDS011;38317;53.084;6.960;2023-12-20T03:04:38;14.07;;;1.63;;
52386;SDS011;38317;53.084;6.960;2023-12-20T03:07:04;19.30;;;2.28;;
52386;SDS011;38317;53.084;6.960;2023-12-20T03:09:29;15.40;;;2.00;;
52386;SDS011;38317;53.084;6.960;2023-12-20T03:11:55;14.45;;;1.85;;
52386;SDS011;38317;53.084;6.960;2023-12-20T03:14:21;17.38;;;2.13;;
52386;SDS011;38317;53.084;6.960;2023-12-20T03:16:51;17.20;;;1.80;;
52386;SDS011;38317;53.084;6.960;2023-12-20T03:19:17;21.55;;;2.25;;
52386;SDS011;38317;53.084;6.960;2023-12-20T03:21:44;16.08;;;1.90;;
52386;SDS011;38317;53.084;6.960;2023-12-20T03:24:10;19.02;;;2.40;;
52386;SDS011;38317;53.084;6.960;2023-12-20T03:26:36;14.93;;;2.30;;
52386;SDS011;38317;53.084;6.960;2023-12-20T03:29:01;10.45;;;1.77;;
52386;SDS011;38317;53.084;6.960;2023-12-20T03:31:27;16.17;;;2.50;;
52386;SDS011;38317;53.084;6.960;2023-12-20T03:33:53;17.17;;;2.40;;
52386;SDS011;38317;53.084;6.960;2023-12-20T03:36:19;17.08;;;2.65;;
52386;SDS011;38317;53.084;6.960;2023-12-20T03:38:45;16.88;;;2.33;;
52386;SDS011;38317;53.084;6.960;2023-12-20T03:41:11;17.08;;;2.97;;
52386;SDS011;38317;53.084;6.960;2023-12-20T03:43:37;20.88;;;2.20;;
52386;SDS011;38317;53.084;6.960;2023-12-20T03:46:03;16.63;;;2.42;;
52386;SDS011;38317;53.084;6.960;2023-12-20T03:48:29;18.73;;;2.28;;
52386;SDS011;38317;53.084;6.960;2023-12-20T03:50:56;15.50;;;2.30;;
52386;SDS011;38317;53.084;6.960;2023-12-20T03:53:22;14.63;;;2.10;;
52386;SDS011;38317;53.084;6.960;2023-12-20T03:55:48;18.30;;;2.38;;
52386;SDS011;38317;53.084;6.960;2023-12-20T03:58:13;26.05;;;2.85;;
52386;SDS011;38317;53.084;6.960;2023-12-20T04:00:39;18.20;;;3.10;;
52386;SDS011;38317;53.084;6.960;2023-12-20T04:03:05;19.15;;;2.58;;
52386;SDS011;38317;53.084;6.960;2023-12-20T04:05:31;14.52;;;2.60;;
52386;SDS011;38317;53.084;6.960;2023-12-20T04:07:56;23.58;;;2.97;;
52386;SDS011;38317;53.084;6.960;2023-12-20T04:10:23;15.52;;;2.67;;
52386;SDS011;38317;53.084;6.960;2023-12-20T04:12:49;22.20;;;3.05;;
52386;SDS011;38317;53.084;6.960;2023-12-20T04:15:14;24.05;;;2.92;;
52386;SDS011;38317;53.084;6.960;2023-12-20T04:17:40;20.25;;;3.28;;
52386;SDS011;38317;53.084;6.960;2023-12-20T04:20:09;21.45;;;2.58;;
52386;SDS011;38317;53.084;6.960;2023-12-20T04:22:35;20.45;;;2.78;;
52386;SDS011;38317;53.084;6.960;2023-12-20T04:25:01;23.15;;;2.65;;
52386;SDS011;38317;53.084;6.960;2023-12-20T04:27:27;18.67;;;2.88;;
52386;SDS011;38317;53.084;6.960;2023-12-20T04:29:53;20.85;;;2.95;;
52386;SDS011;38317;53.084;6.960;2023-12-20T04:32:19;21.15;;;3.20;;
52386;SDS011;38317;53.084;6.960;2023-12-20T04:34:45;21.63;;;2.72;;
52386;SDS011;38317;53.084;6.960;2023-12-20T04:37:11;23.10;;;3.30;;
52386;SDS011;38317;53.084;6.960;2023-12-20T04:39:37;22.67;;;2.85;;
52386;SDS011;38317;53.084;6.960;2023-12-20T04:42:05;22.10;;;2.88;;
52386;SDS011;38317;53.084;6.960;2023-12-20T04:44:30;22.77;;;3.03;;
52386;SDS011;38317;53.084;6.960;2023-12-20T04:46:56;22.60;;;3.45;;
52386;SDS011;38317;53.084;6.960;2023-12-20T04:49:22;17.30;;;2.38;;
52386;SDS011;38317;53.084;6.960;2023-12-20T04:51:48;17.55;;;2.78;;
52386;SDS011;38317;53.084;6.960;2023-12-20T04:54:15;19.50;;;2.83;;
52386;SDS011;38317;53.084;6.960;2023-12-20T04:56:41;19.15;;;3.03;;
52386;SDS011;38317;53.084;6.960;2023-12-20T04:59:07;21.48;;;3.80;;
52386;SDS011;38317;53.084;6.960;2023-12-20T05:01:37;23.23;;;3.17;;
52386;SDS011;38317;53.084;6.960;2023-12-20T05:04:02;27.35;;;3.03;;
52386;SDS011;38317;53.084;6.960;2023-12-20T05:06:29;24.20;;;3.08;;
52386;SDS011;38317;53.084;6.960;2023-12-20T05:08:55;24.85;;;3.08;;
52386;SDS011;38317;53.084;6.960;2023-12-20T05:11:21;22.00;;;3.15;;
52386;SDS011;38317;53.084;6.960;2023-12-20T05:13:46;20.88;;;3.00;;
52386;SDS011;38317;53.084;6.960;2023-12-20T05:16:12;20.35;;;2.85;;
52386;SDS011;38317;53.084;6.960;2023-12-20T05:18:42;24.67;;;4.10;;
52386;SDS011;38317;53.084;6.960;2023-12-20T05:21:08;23.25;;;3.28;;
52386;SDS011;38317;53.084;6.960;2023-12-20T05:23:34;21.23;;;3.47;;
52386;SDS011;38317;53.084;6.960;2023-12-20T05:26:00;28.25;;;3.33;;
52386;SDS011;38317;53.084;6.960;2023-12-20T05:28:25;17.92;;;2.60;;
52386;SDS011;38317;53.084;6.960;2023-12-20T05:30:51;22.27;;;3.17;;
52386;SDS011;38317;53.084;6.960;2023-12-20T05:33:17;20.85;;;2.78;;
52386;SDS011;38317;53.084;6.960;2023-12-20T05:35:43;26.58;;;3.20;;
52386;SDS011;38317;53.084;6.960;2023-12-20T05:38:10;27.63;;;3.45;;
52386;SDS011;38317;53.084;6.960;2023-12-20T05:40:41;24.63;;;2.80;;
52386;SDS011;38317;53.084;6.960;2023-12-20T05:43:07;15.00;;;2.78;;
52386;SDS011;38317;53.084;6.960;2023-12-20T05:45:33;24.65;;;3.97;;
52386;SDS011;38317;53.084;6.960;2023-12-20T05:47:59;22.83;;;3.03;;
52386;SDS011;38317;53.084;6.960;2023-12-20T05:50:25;25.83;;;3.42;;
52386;SDS011;38317;53.084;6.960;2023-12-20T05:52:50;19.35;;;2.72;;
52386;SDS011;38317;53.084;6.960;2023-12-20T05:55:16;17.48;;;2.95;;
52386;SDS011;38317;53.084;6.960;2023-12-20T05:57:42;18.33;;;3.20;;
52386;SDS011;38317;53.084;6.960;2023-12-20T06:00:08;26.85;;;3.45;;
52386;SDS011;38317;53.084;6.960;2023-12-20T06:02:35;25.60;;;3.45;;
52386;SDS011;38317;53.084;6.960;2023-12-20T06:05:04;21.90;;;3.22;;
52386;SDS011;38317;53.084;6.960;2023-12-20T06:07:30;24.85;;;3.20;;
52386;SDS011;38317;53.084;6.960;2023-12-20T06:09:55;20.60;;;2.75;;
52386;SDS011;38317;53.084;6.960;2023-12-20T06:12:21;22.20;;;3.53;;
52386;SDS011;38317;53.084;6.960;2023-12-20T06:14:48;23.23;;;2.92;;
52386;SDS011;38317;53.084;6.960;2023-12-20T06:17:13;18.73;;;2.92;;
52386;SDS011;38317;53.084;6.960;2023-12-20T06:19:39;22.15;;;2.72;;
52386;SDS011;38317;53.084;6.960;2023-12-20T06:22:05;22.65;;;3.22;;
52386;SDS011;38317;53.084;6.960;2023-12-20T06:24:31;19.92;;;2.92;;
52386;SDS011;38317;53.084;6.960;2023-12-20T06:26:58;18.17;;;2.95;;
52386;SDS011;38317;53.084;6.960;2023-12-20T06:29:24;23.90;;;2.70;;
52386;SDS011;38317;53.084;6.960;2023-12-20T06:31:50;21.38;;;4.13;;
52386;SDS011;38317;53.084;6.960;2023-12-20T06:34:16;24.45;;;3.17;;
52386;SDS011;38317;53.084;6.960;2023-12-20T06:36:42;24.48;;;4.03;;
52386;SDS011;38317;53.084;6.960;2023-12-20T06:39:08;20.98;;;3.95;;
52386;SDS011;38317;53.084;6.960;2023-12-20T06:41:33;25.50;;;3.45;;
52386;SDS011;38317;53.084;6.960;2023-12-20T06:43:59;22.60;;;3.47;;
52386;SDS011;38317;53.084;6.960;2023-12-20T06:46:25;24.98;;;4.38;;
52386;SDS011;38317;53.084;6.960;2023-12-20T06:48:51;21.58;;;4.07;;
52386;SDS011;38317;53.084;6.960;2023-12-20T06:51:17;19.33;;;3.38;;
52386;SDS011;38317;53.084;6.960;2023-12-20T06:53:45;20.27;;;3.40;;
52386;SDS011;38317;53.084;6.960;2023-12-20T06:56:11;19.30;;;3.00;;
52386;SDS011;38317;53.084;6.960;2023-12-20T06:58:37;28.25;;;4.35;;
52386;SDS011;38317;53.084;6.960;2023-12-20T07:01:03;22.70;;;3.60;;
52386;SDS011;38317;53.084;6.960;2023-12-20T07:03:30;24.63;;;3.05;;
52386;SDS011;38317;53.084;6.960;2023-12-20T07:05:55;19.17;;;2.88;;
52386;SDS011;38317;53.084;6.960;2023-12-20T07:08:21;24.10;;;3.22;;
52386;SDS011;38317;53.084;6.960;2023-12-20T07:10:47;24.58;;;3.15;;
52386;SDS011;38317;53.084;6.960;2023-12-20T07:13:13;20.10;;;3.22;;
52386;SDS011;38317;53.084;6.960;2023-12-20T07:15:39;19.58;;;2.83;;
52386;SDS011;38317;53.084;6.960;2023-12-20T07:18:05;19.27;;;2.45;;
52386;SDS011;38317;53.084;6.960;2023-12-20T07:20:31;25.42;;;2.78;;
52386;SDS011;38317;53.084;6.960;2023-12-20T07:22:57;24.77;;;3.40;;
52386;SDS011;38317;53.084;6.960;2023-12-20T07:25:23;24.50;;;3.03;;
52386;SDS011;38317;53.084;6.960;2023-12-20T07:27:48;23.10;;;3.22;;
52386;SDS011;38317;53.084;6.960;2023-12-20T07:30:14;24.90;;;3.35;;
52386;SDS011;38317;53.084;6.960;2023-12-20T07:32:40;18.70;;;3.25;;
52386;SDS011;38317;53.084;6.960;2023-12-20T07:35:06;30.95;;;4.03;;
52386;SDS011;38317;53.084;6.960;2023-12-20T07:37:32;21.80;;;2.90;;
52386;SDS011;38317;53.084;6.960;2023-12-20T07:39:58;20.35;;;2.80;;
52386;SDS011;38317;53.084;6.960;2023-12-20T07:42:23;17.33;;;2.50;;
52386;SDS011;38317;53.084;6.960;2023-12-20T07:44:49;25.13;;;3.45;;
52386;SDS011;38317;53.084;6.960;2023-12-20T07:47:15;20.83;;;3.00;;
52386;SDS011;38317;53.084;6.960;2023-12-20T07:49:44;32.40;;;4.05;;
52386;SDS011;38317;53.084;6.960;2023-12-20T07:52:10;22.45;;;3.40;;
52386;SDS011;38317;53.084;6.960;2023-12-20T07:54:36;28.08;;;4.18;;
52386;SDS011;38317;53.084;6.960;2023-12-20T07:57:01;19.98;;;3.35;;
52386;SDS011;38317;53.084;6.960;2023-12-20T07:59:27;22.90;;;2.67;;
52386;SDS011;38317;53.084;6.960;2023-12-20T08:01:53;21.67;;;3.05;;
52386;SDS011;38317;53.084;6.960;2023-12-20T08:04:18;19.63;;;3.40;;
52386;SDS011;38317;53.084;6.960;2023-12-20T08:06:44;25.15;;;3.58;;
52386;SDS011;38317;53.084;6.960;2023-12-20T08:09:10;21.90;;;3.03;;
52386;SDS011;38317;53.084;6.960;2023-12-20T08:11:36;20.38;;;3.85;;
52386;SDS011;38317;53.084;6.960;2023-12-20T08:14:02;22.08;;;3.22;;
52386;SDS011;38317;53.084;6.960;2023-12-20T08:16:27;23.27;;;3.33;;
52386;SDS011;38317;53.084;6.960;2023-12-20T08:18:53;16.05;;;2.50;;
52386;SDS011;38317;53.084;6.960;2023-12-20T08:21:19;18.77;;;2.70;;
52386;SDS011;38317;53.084;6.960;2023-12-20T08:23:47;18.13;;;3.15;;
52386;SDS011;38317;53.084;6.960;2023-12-20T08:26:13;20.65;;;3.25;;
52386;SDS011;38317;53.084;6.960;2023-12-20T08:28:42;24.27;;;4.00;;
52386;SDS011;38317;53.084;6.960;2023-12-20T08:31:13;21.58;;;3.22;;
52386;SDS011;38317;53.084;6.960;2023-12-20T08:33:40;20.67;;;3.22;;
52386;SDS011;38317;53.084;6.960;2023-12-20T08:36:05;19.02;;;2.97;;
52386;SDS011;38317;53.084;6.960;2023-12-20T08:38:31;19.58;;;3.38;;
52386;SDS011;38317;53.084;6.960;2023-12-20T08:40:57;26.38;;;3.42;;
52386;SDS011;38317;53.084;6.960;2023-12-20T08:43:23;18.48;;;3.10;;
52386;SDS011;38317;53.084;6.960;2023-12-20T08:45:48;22.75;;;3.15;;
52386;SDS011;38317;53.084;6.960;2023-12-20T08:48:14;25.45;;;3.42;;
52386;SDS011;38317;53.084;6.960;2023-12-20T08:50:40;19.58;;;2.90;;
52386;SDS011;38317;53.084;6.960;2023-12-20T08:53:05;17.88;;;2.47;;
52386;SDS011;38317;53.084;6.960;2023-12-20T08:55:32;20.38;;;3.10;;
52386;SDS011;38317;53.084;6.960;2023-12-20T08:57:58;19.38;;;3.10;;
52386;SDS011;38317;53.084;6.960;2023-12-20T09:00:24;18.08;;;2.83;;
52386;SDS011;38317;53.084;6.960;2023-12-20T09:02:52;18.02;;;2.90;;
52386;SDS011;38317;53.084;6.960;2023-12-20T09:05:19;15.85;;;2.45;;
52386;SDS011;38317;53.084;6.960;2023-12-20T09:07:45;17.90;;;2.25;;
52386;SDS011;38317;53.084;6.960;2023-12-20T09:10:11;20.25;;;3.22;;
52386;SDS011;38317;53.084;6.960;2023-12-20T09:12:37;10.20;;;1.15;;
52386;SDS011;38317;53.084;6.960;2023-12-20T09:15:05;9.45;;;1.23;;
52386;SDS011;38317;53.084;6.960;2023-12-20T09:17:31;10.57;;;1.42;;
52386;SDS011;38317;53.084;6.960;2023-12-20T09:19:57;5.28;;;0.70;;
52386;SDS011;38317;53.084;6.960;2023-12-20T09:22:25;5.88;;;0.70;;
52386;SDS011;38317;53.084;6.960;2023-12-20T09:24:50;4.93;;;0.60;;
52386;SDS011;38317;53.084;6.960;2023-12-20T09:27:16;8.68;;;0.88;;
52386;SDS011;38317;53.084;6.960;2023-12-20T09:29:42;5.32;;;0.95;;
52386;SDS011;38317;53.084;6.960;2023-12-20T09:32:08;7.50;;;0.80;;
52386;SDS011;38317;53.084;6.960;2023-12-20T09:34:37;7.55;;;0.70;;
52386;SDS011;38317;53.084;6.960;2023-12-20T09:37:03;9.38;;;0.98;;
52386;SDS011;38317;53.084;6.960;2023-12-20T09:39:29;7.35;;;0.70;;
52386;SDS011;38317;53.084;6.960;2023-12-20T09:42:00;7.82;;;1.00;;
52386;SDS011;38317;53.084;6.960;2023-12-20T09:44:28;6.50;;;0.80;;
52386;SDS011;38317;53.084;6.960;2023-12-20T09:46:55;7.18;;;0.93;;
52386;SDS011;38317;53.084;6.960;2023-12-20T09:49:21;7.75;;;0.75;;
52386;SDS011;38317;53.084;6.960;2023-12-20T09:51:47;7.38;;;0.68;;
52386;SDS011;38317;53.084;6.960;2023-12-20T09:54:15;7.55;;;0.65;;
52386;SDS011;38317;53.084;6.960;2023-12-20T09:56:43;4.25;;;0.50;;
52386;SDS011;38317;53.084;6.960;2023-12-20T09:59:12;2.85;;;0.45;;
52386;SDS011;38317;53.084;6.960;2023-12-20T10:01:38;3.25;;;0.50;;
52386;SDS011;38317;53.084;6.960;2023-12-20T10:04:06;5.57;;;0.98;;
52386;SDS011;38317;53.084;6.960;2023-12-20T10:06:37;5.95;;;0.90;;
52386;SDS011;38317;53.084;6.960;2023-12-20T10:09:07;3.75;;;0.50;;
52386;SDS011;38317;53.084;6.960;2023-12-20T10:11:38;3.15;;;0.40;;
52386;SDS011;38317;53.084;6.960;2023-12-20T10:14:07;8.65;;;0.82;;
52386;SDS011;38317;53.084;6.960;2023-12-20T10:16:33;8.10;;;0.70;;
52386;SDS011;38317;53.084;6.960;2023-12-20T10:19:00;5.25;;;0.85;;
52386;SDS011;38317;53.084;6.960;2023-12-20T10:21:26;9.52;;;0.65;;
52386;SDS011;38317;53.084;6.960;2023-12-20T10:23:53;5.60;;;0.70;;
52386;SDS011;38317;53.084;6.960;2023-12-20T10:26:23;8.25;;;0.65;;
52386;SDS011;38317;53.084;6.960;2023-12-20T10:28:53;5.43;;;0.68;;
52386;SDS011;38317;53.084;6.960;2023-12-20T10:31:27;8.90;;;0.80;;
52386;SDS011;38317;53.084;6.960;2023-12-20T10:33:57;8.65;;;0.88;;
52386;SDS011;38317;53.084;6.960;2023-12-20T10:36:27;9.00;;;1.10;;
52386;SDS011;38317;53.084;6.960;2023-12-20T10:38:56;6.93;;;0.70;;
52386;SDS011;38317;53.084;6.960;2023-12-20T10:41:30;6.18;;;0.80;;
52386;SDS011;38317;53.084;6.960;2023-12-20T10:44:01;5.50;;;0.90;;
52386;SDS011;38317;53.084;6.960;2023-12-20T10:46:28;6.78;;;0.77;;
52386;SDS011;38317;53.084;6.960;2023-12-20T10:48:55;5.65;;;0.60;;
52386;SDS011;38317;53.084;6.960;2023-12-20T10:51:22;8.30;;;0.90;;
52386;SDS011;38317;53.084;6.960;2023-12-20T10:53:51;8.73;;;0.80;;
52386;SDS011;38317;53.084;6.960;2023-12-20T10:56:18;9.38;;;0.90;;
52386;SDS011;38317;53.084;6.960;2023-12-20T10:58:46;6.63;;;0.85;;
52386;SDS011;38317;53.084;6.960;2023-12-20T11:01:13;12.00;;;1.20;;
52386;SDS011;38317;53.084;6.960;2023-12-20T11:03:43;7.60;;;0.90;;
52386;SDS011;38317;53.084;6.960;2023-12-20T11:09:10;10.02;;;1.13;;
52386;SDS011;38317;53.084;6.960;2023-12-20T11:11:52;6.50;;;1.05;;
52386;SDS011;38317;53.084;6.960;2023-12-20T11:14:25;7.50;;;1.23;;
52386;SDS011;38317;53.084;6.960;2023-12-20T11:17:13;8.48;;;1.48;;
52386;SDS011;38317;53.084;6.960;2023-12-20T11:20:34;7.85;;;1.00;;
52386;SDS011;38317;53.084;6.960;2023-12-20T11:22:32;12.90;;;2.05;;
52386;SDS011;38317;53.084;6.960;2023-12-20T11:24:59;12.65;;;1.38;;
52386;SDS011;38317;53.084;6.960;2023-12-20T11:27:36;10.68;;;1.27;;
52386;SDS011;38317;53.084;6.960;2023-12-20T11:30:05;6.95;;;1.30;;
52386;SDS011;38317;53.084;6.960;2023-12-20T11:32:33;10.88;;;1.33;;
52386;SDS011;38317;53.084;6.960;2023-12-20T11:37:32;14.38;;;1.90;;
52386;SDS011;38317;53.084;6.960;2023-12-20T11:40:02;13.75;;;1.83;;
52386;SDS011;38317;53.084;6.960;2023-12-20T11:42:37;11.85;;;1.73;;
52386;SDS011;38317;53.084;6.960;2023-12-20T11:45:08;9.85;;;1.50;;
52386;SDS011;38317;53.084;6.960;2023-12-20T11:47:34;7.88;;;1.15;;
52386;SDS011;38317;53.084;6.960;2023-12-20T11:50:00;13.48;;;1.77;;
52386;SDS011;38317;53.084;6.960;2023-12-20T11:52:29;11.57;;;1.38;;
52386;SDS011;38317;53.084;6.960;2023-12-20T11:54:55;11.90;;;1.40;;
52386;SDS011;38317;53.084;6.960;2023-12-20T11:57:22;10.75;;;1.40;;
52386;SDS011;38317;53.084;6.960;2023-12-20T11:59:48;14.10;;;1.10;;
52386;SDS011;38317;53.084;6.960;2023-12-20T12:02:16;14.40;;;1.70;;
52386;SDS011;38317;53.084;6.960;2023-12-20T12:04:42;13.57;;;1.52;;
52386;SDS011;38317;53.084;6.960;2023-12-20T12:07:11;14.32;;;1.40;;
52386;SDS011;38317;53.084;6.960;2023-12-20T12:09:37;10.70;;;1.10;;
52386;SDS011;38317;53.084;6.960;2023-12-20T12:12:03;16.95;;;1.70;;
52386;SDS011;38317;53.084;6.960;2023-12-20T12:14:29;9.13;;;0.88;;
52386;SDS011;38317;53.084;6.960;2023-12-20T12:17:04;12.73;;;1.80;;
52386;SDS011;38317;53.084;6.960;2023-12-20T12:19:33;17.88;;;1.95;;
52386;SDS011;38317;53.084;6.960;2023-12-20T12:22:08;10.38;;;1.35;;
52386;SDS011;38317;53.084;6.960;2023-12-20T12:24:45;13.23;;;1.30;;
52386;SDS011;38317;53.084;6.960;2023-12-20T12:27:12;9.75;;;1.48;;
52386;SDS011;38317;53.084;6.960;2023-12-20T12:29:39;9.82;;;1.60;;
52386;SDS011;38317;53.084;6.960;2023-12-20T12:32:05;15.43;;;1.70;;
52386;SDS011;38317;53.084;6.960;2023-12-20T12:34:32;10.52;;;1.80;;
52386;SDS011;38317;53.084;6.960;2023-12-20T12:37:01;9.20;;;1.33;;
52386;SDS011;38317;53.084;6.960;2023-12-20T12:39:29;15.88;;;1.60;;
52386;SDS011;38317;53.084;6.960;2023-12-20T12:41:55;13.70;;;2.17;;
52386;SDS011;38317;53.084;6.960;2023-12-20T12:44:22;8.70;;;1.45;;
52386;SDS011;38317;53.084;6.960;2023-12-20T12:46:51;11.98;;;1.60;;
52386;SDS011;38317;53.084;6.960;2023-12-20T12:49:19;10.60;;;1.70;;
52386;SDS011;38317;53.084;6.960;2023-12-20T12:51:46;13.40;;;1.38;;
52386;SDS011;38317;53.084;6.960;2023-12-20T12:54:12;10.32;;;1.58;;
52386;SDS011;38317;53.084;6.960;2023-12-20T12:56:38;10.60;;;1.58;;
52386;SDS011;38317;53.084;6.960;2023-12-20T12:59:04;14.43;;;1.27;;
52386;SDS011;38317;53.084;6.960;2023-12-20T13:01:31;12.05;;;1.20;;
52386;SDS011;38317;53.084;6.960;2023-12-20T13:03:56;14.57;;;1.63;;
52386;SDS011;38317;53.084;6.960;2023-12-20T13:06:22;12.43;;;1.70;;
52386;SDS011;38317;53.084;6.960;2023-12-20T13:08:48;14.02;;;1.55;;
52386;SDS011;38317;53.084;6.960;2023-12-20T13:11:14;12.07;;;1.83;;
52386;SDS011;38317;53.084;6.960;2023-12-20T13:13:46;15.77;;;1.70;;
52386;SDS011;38317;53.084;6.960;2023-12-20T13:16:12;11.43;;;1.73;;
52386;SDS011;38317;53.084;6.960;2023-12-20T13:18:38;13.30;;;1.65;;
52386;SDS011;38317;53.084;6.960;2023-12-20T13:21:07;11.80;;;1.70;;
52386;SDS011;38317;53.084;6.960;2023-12-20T13:23:34;16.55;;;1.90;;
52386;SDS011;38317;53.084;6.960;2023-12-20T13:25:59;10.98;;;1.55;;
52386;SDS011;38317;53.084;6.960;2023-12-20T13:28:26;17.70;;;2.78;;
52386;SDS011;38317;53.084;6.960;2023-12-20T13:30:52;11.65;;;2.10;;
52386;SDS011;38317;53.084;6.960;2023-12-20T13:33:17;10.60;;;1.75;;
52386;SDS011;38317;53.084;6.960;2023-12-20T13:35:43;11.27;;;2.42;;
52386;SDS011;38317;53.084;6.960;2023-12-20T13:38:12;15.82;;;2.55;;
52386;SDS011;38317;53.084;6.960;2023-12-20T13:40:38;12.70;;;1.90;;
52386;SDS011;38317;53.084;6.960;2023-12-20T13:43:04;14.07;;;1.70;;
52386;SDS011;38317;53.084;6.960;2023-12-20T13:45:31;10.68;;;1.67;;
52386;SDS011;38317;53.084;6.960;2023-12-20T13:47:57;10.77;;;2.10;;
52386;SDS011;38317;53.084;6.960;2023-12-20T13:50:24;15.68;;;3.15;;
52386;SDS011;38317;53.084;6.960;2023-12-20T13:52:51;12.57;;;2.30;;
52386;SDS011;38317;53.084;6.960;2023-12-20T13:55:17;13.27;;;1.98;;
52386;SDS011;38317;53.084;6.960;2023-12-20T13:57:42;11.82;;;1.67;;
52386;SDS011;38317;53.084;6.960;2023-12-20T14:00:08;15.82;;;2.03;;
52386;SDS011;38317;53.084;6.960;2023-12-20T14:02:40;11.20;;;1.40;;
52386;SDS011;38317;53.084;6.960;2023-12-20T14:05:06;11.52;;;2.40;;
52386;SDS011;38317;53.084;6.960;2023-12-20T14:07:33;9.85;;;1.25;;
52386;SDS011;38317;53.084;6.960;2023-12-20T14:09:58;10.70;;;1.60;;
52386;SDS011;38317;53.084;6.960;2023-12-20T14:12:24;8.30;;;1.20;;
52386;SDS011;38317;53.084;6.960;2023-12-20T14:14:50;10.40;;;1.13;;
52386;SDS011;38317;53.084;6.960;2023-12-20T14:17:16;9.23;;;1.48;;
52386;SDS011;38317;53.084;6.960;2023-12-20T14:19:43;10.73;;;1.50;;
52386;SDS011;38317;53.084;6.960;2023-12-20T14:22:09;10.40;;;1.10;;
52386;SDS011;38317;53.084;6.960;2023-12-20T14:24:35;8.98;;;0.80;;
52386;SDS011;38317;53.084;6.960;2023-12-20T14:27:01;7.50;;;0.88;;
52386;SDS011;38317;53.084;6.960;2023-12-20T14:29:27;5.32;;;0.95;;
52386;SDS011;38317;53.084;6.960;2023-12-20T14:31:52;7.10;;;1.05;;
52386;SDS011;38317;53.084;6.960;2023-12-20T14:34:18;11.48;;;1.00;;
52386;SDS011;38317;53.084;6.960;2023-12-20T14:36:44;8.40;;;1.00;;
52386;SDS011;38317;53.084;6.960;2023-12-20T14:39:10;9.45;;;0.80;;
52386;SDS011;38317;53.084;6.960;2023-12-20T14:41:38;7.72;;;0.80;;